Аэропорт: Алматы. Алма-Ата

ICAO: UAAA

METAR:
2022-06-26 10:30:00
UAAA 261030Z 36003MPS 320V040 9999 SCT050CB 35/13 Q1006 NOSIG
METAR:
2022-06-26 05:00:00
TAF UAAA 260500Z 2606/2706 02003MPS 9999 FEW050CB SCT100 TX35/2609Z TN22/2701Z TEMPO 2606/2616 06003G09MPS BECMG 2616/2617 16003MPS TEMPO 2616/2703 21003MPS BECMG 2703/2704 32003MPS SCT050CB BKN100